GBYD Airport Information

Runway Information
Runway 14 Length 11811 ft width 148 ft
Elevation 88 ft Threshold 0 ft Heading 131
Runway 32 Length 11811 ft Width 148 ft
Elevation 74 ft Threshold 0 ft Heading 311
Airport Frequencies
Type APP Name APP Frequency 121.3 MHZ
Type GND Name GND Frequency 121.9 MHZ
Type TWR Name TWR Frequency 118.3 MHZ
Airport Navaids
Type VOR-DME Name Banjul Frequency 112900 KHZ
Type NDB Name Banjul Frequency 256 KHZ
Airport Weather Information & NOTAM
ADDS - METARS form results

(2341 UTC 22 January 2020)
Data provider http://aviationweather.gov/metar/data/
 
METAR text: GBYD 222300Z 00000KT 9000 NSC 23/15 Q1013
Conditions at: GBYD (BANJUL/YUNDUM IN, GM) observed 2300 UTC 22 January 2020
Temperature: 23.0°C (73°F)
Dewpoint: 15.0°C (59°F) [RH = 61%]
Pressure (altimeter): 29.91 inches Hg (1013.0 mb)
Winds: calm
Visibility: 6 miles ( 9 km)
Ceiling: at least 12,000 feet AGL
Clouds: sky clear below 12,000 feet AGL
Weather: no significant weather observed at this time

Forecast for: GBYD (BANJUL/YUNDUM IN, GM)
Text: TAF GBYD 222330Z 2300/2406 03006KT CAVOK
Forecast period: 0000 UTC 23 January 2020 to 0600 UTC 24 January 2020
Forecast type: FROM: standard forecast or significant change
Winds: from the NNE (30 degrees) at 7 MPH (6 knots; 3.1 m/s)
Visibility: 6 or more miles 10+ km)
Ceiling: unknown
Clouds: missing
Weather: NSW  (no significant weather)